createdAt,value
2022-08-17T00:02:25.334Z,88.40
2022-08-17T00:04:54.536Z,88.70
2022-08-17T00:07:21.258Z,89.10
2022-08-17T00:09:48.193Z,89.40
2022-08-17T00:12:43.178Z,89.80
2022-08-17T00:15:02.313Z,90.00
2022-08-17T00:17:29.171Z,90.40
2022-08-17T00:19:55.860Z,90.60
2022-08-17T00:22:35.328Z,91.10
2022-08-17T00:25:07.536Z,91.50
2022-08-17T00:27:34.952Z,91.70
2022-08-17T00:30:02.155Z,91.70
2022-08-17T00:33:15.124Z,91.70
2022-08-17T00:35:19.414Z,91.50
2022-08-17T00:37:46.229Z,91.50
2022-08-17T00:40:15.097Z,91.40
2022-08-17T00:42:43.414Z,91.10
2022-08-17T00:45:12.877Z,91.20
2022-08-17T00:47:40.407Z,91.30
2022-08-17T00:50:10.767Z,91.10
2022-08-17T00:52:43.693Z,90.90
2022-08-17T00:55:11.080Z,90.70
2022-08-17T00:57:43.339Z,90.40
2022-08-17T01:00:15.747Z,90.60
2022-08-17T01:02:45.322Z,90.70
2022-08-17T01:05:16.399Z,91.30
2022-08-17T01:07:47.613Z,92.20
2022-08-17T01:10:58.227Z,92.10
2022-08-17T01:13:04.053Z,91.60
2022-08-17T01:15:36.518Z,91.60
2022-08-17T01:18:05.470Z,91.70
2022-08-17T01:20:32.509Z,91.90
2022-08-17T01:23:20.534Z,92.10
2022-08-17T01:25:53.299Z,92.90
2022-08-17T01:28:52.716Z,93.50
2022-08-17T01:31:08.886Z,94.10
2022-08-17T01:33:36.658Z,94.30
2022-08-17T01:36:07.018Z,94.50
2022-08-17T01:38:37.846Z,94.90
2022-08-17T01:41:13.641Z,95.10
2022-08-17T01:43:47.445Z,94.80
2022-08-17T01:46:22.750Z,94.80
2022-08-17T01:48:51.166Z,94.30
2022-08-17T01:51:18.149Z,93.70
2022-08-17T01:53:50.120Z,93.60
2022-08-17T01:56:20.401Z,93.60
2022-08-17T01:58:48.055Z,93.60
2022-08-17T02:01:19.588Z,93.70
2022-08-17T02:03:53.225Z,93.70
2022-08-17T02:06:28.491Z,94.00
2022-08-17T02:09:02.835Z,93.90
2022-08-17T02:11:33.061Z,93.50
2022-08-17T02:14:03.360Z,93.30
2022-08-17T02:16:37.333Z,92.90
2022-08-17T02:19:10.145Z,92.70
2022-08-17T02:21:37.783Z,92.70
2022-08-17T02:24:08.196Z,92.60
2022-08-17T02:26:35.172Z,92.60
2022-08-17T02:29:02.014Z,93.00
2022-08-17T02:31:31.025Z,93.40
2022-08-17T02:34:03.681Z,93.50
2022-08-17T02:36:33.886Z,93.50
2022-08-17T02:39:06.270Z,93.80
2022-08-17T02:41:33.435Z,93.90
2022-08-17T02:44:00.284Z,94.00
2022-08-17T02:46:27.312Z,94.10
2022-08-17T02:48:54.162Z,94.60
2022-08-17T02:51:20.859Z,95.20
2022-08-17T02:53:47.635Z,95.60
2022-08-17T02:56:14.341Z,95.90
2022-08-17T02:58:41.241Z,96.30
2022-08-17T03:01:09.771Z,96.50
2022-08-17T03:03:37.773Z,96.40
2022-08-17T03:06:06.125Z,96.40
2022-08-17T03:08:32.890Z,96.70
2022-08-17T03:10:59.695Z,96.60
2022-08-17T03:13:27.164Z,96.40
2022-08-17T03:15:54.011Z,96.40
2022-08-17T03:18:25.082Z,96.10
2022-08-17T03:20:58.128Z,95.70
2022-08-17T03:23:25.868Z,95.20
2022-08-17T03:25:55.098Z,95.00
2022-08-17T03:28:22.994Z,95.20
2022-08-17T03:30:51.215Z,95.50
2022-08-17T03:33:19.124Z,95.50
2022-08-17T03:35:46.332Z,95.80
2022-08-17T03:38:15.318Z,96.30
2022-08-17T03:40:57.192Z,96.40
2022-08-17T03:43:30.111Z,96.30
2022-08-17T03:46:27.644Z,96.30
2022-08-17T03:49:19.153Z,96.30
2022-08-17T03:52:04.564Z,96.60
2022-08-17T03:54:50.228Z,97.60
2022-08-17T03:57:17.054Z,97.70
2022-08-17T03:59:44.879Z,97.70
2022-08-17T04:02:19.060Z,98.20
2022-08-17T04:04:45.839Z,98.40
2022-08-17T04:07:12.736Z,98.10
2022-08-17T04:09:39.433Z,98.00
2022-08-17T04:12:06.374Z,98.20
2022-08-17T04:14:45.988Z,98.00
2022-08-17T04:17:22.326Z,97.90
2022-08-17T04:19:49.051Z,97.80
2022-08-17T04:22:31.095Z,97.60
2022-08-17T04:25:18.423Z,97.50
2022-08-17T04:27:45.125Z,97.40
2022-08-17T04:30:12.830Z,97.30
2022-08-17T04:33:08.599Z,97.00
2022-08-17T04:35:48.124Z,96.80
2022-08-17T04:38:20.519Z,96.60
2022-08-17T04:41:06.454Z,96.50
2022-08-17T04:43:35.052Z,96.80
2022-08-17T04:46:11.439Z,97.20
2022-08-17T04:48:44.918Z,97.30
2022-08-17T04:51:19.336Z,97.10
2022-08-17T04:53:54.104Z,97.10
2022-08-17T04:56:22.064Z,97.10
2022-08-17T04:58:51.635Z,97.10
2022-08-17T05:01:23.614Z,97.10
2022-08-17T05:03:56.479Z,97.20
2022-08-17T05:06:23.696Z,97.00
2022-08-17T05:08:50.940Z,96.80
2022-08-17T05:11:18.105Z,96.60
2022-08-17T05:13:45.030Z,96.70
2022-08-17T05:16:12.060Z,95.90
2022-08-17T05:18:39.110Z,96.00
2022-08-17T05:21:06.965Z,95.60
2022-08-17T05:23:42.055Z,95.90
2022-08-17T05:26:26.913Z,95.80
2022-08-17T05:28:57.187Z,95.70
2022-08-17T05:31:26.820Z,95.00
2022-08-17T05:33:53.996Z,94.70
2022-08-17T05:36:38.025Z,94.70
2022-08-17T05:39:15.681Z,94.30
2022-08-17T05:41:45.070Z,94.00
2022-08-17T05:44:11.760Z,94.00
2022-08-17T05:46:43.404Z,93.70
2022-08-17T05:49:18.058Z,92.60
2022-08-17T05:52:03.450Z,92.40
2022-08-17T05:54:58.977Z,92.30
2022-08-17T05:57:53.770Z,91.80
2022-08-17T06:00:26.296Z,91.90
2022-08-17T06:03:29.304Z,90.90
2022-08-17T06:06:33.586Z,90.50
2022-08-17T06:09:18.739Z,89.20
2022-08-17T06:12:14.335Z,88.60
2022-08-17T06:15:24.868Z,88.30
2022-08-17T06:17:58.595Z,87.40
2022-08-17T06:20:35.564Z,86.10
2022-08-17T06:23:08.506Z,84.90
2022-08-17T06:25:44.505Z,84.70
2022-08-17T06:28:16.189Z,83.70
2022-08-17T06:31:00.749Z,83.40
2022-08-17T06:33:35.583Z,83.20
2022-08-17T06:36:25.155Z,82.70
2022-08-17T06:39:12.575Z,81.20
2022-08-17T06:42:07.177Z,79.80
2022-08-17T06:44:51.079Z,79.70
2022-08-17T06:47:31.593Z,79.30
2022-08-17T06:50:08.842Z,79.00
2022-08-17T06:52:47.631Z,78.20
2022-08-17T06:55:21.298Z,78.00
2022-08-17T06:57:55.156Z,77.60
2022-08-17T07:00:33.616Z,76.90
2022-08-17T07:03:16.498Z,77.50
2022-08-17T07:06:05.407Z,77.30
2022-08-17T07:09:07.383Z,77.10
2022-08-17T07:11:50.362Z,76.90
2022-08-17T07:14:37.826Z,76.10
2022-08-17T07:17:18.244Z,75.50
2022-08-17T07:19:47.829Z,76.20
2022-08-17T07:22:57.555Z,75.80
2022-08-17T07:25:21.821Z,75.60
2022-08-17T07:27:53.993Z,74.70
2022-08-17T07:30:25.043Z,74.70
2022-08-17T07:33:02.444Z,73.90
2022-08-17T07:35:31.085Z,74.10
2022-08-17T07:38:25.045Z,73.00
2022-08-17T07:40:59.005Z,72.50
2022-08-17T07:43:29.409Z,73.30
2022-08-17T07:46:30.192Z,73.20
2022-08-17T07:49:18.024Z,72.60
2022-08-17T07:51:45.690Z,71.70
2022-08-17T07:54:15.302Z,72.30
2022-08-17T07:57:29.390Z,71.10
2022-08-17T07:59:59.642Z,70.60
2022-08-17T08:02:33.470Z,70.10
2022-08-17T08:05:32.872Z,71.50
2022-08-17T08:08:42.314Z,72.00
2022-08-17T08:11:15.686Z,71.00
2022-08-17T08:13:45.563Z,70.60
2022-08-17T08:16:24.471Z,70.80
2022-08-17T08:18:58.557Z,69.80
2022-08-17T08:21:49.158Z,70.00
2022-08-17T08:24:32.619Z,71.30
2022-08-17T08:27:33.550Z,70.50
2022-08-17T08:30:14.827Z,70.50
2022-08-17T08:32:54.040Z,70.60
2022-08-17T08:35:40.074Z,70.40
2022-08-17T08:38:26.725Z,70.50
2022-08-17T08:41:13.901Z,70.70
2022-08-17T08:44:03.633Z,70.40
2022-08-17T08:46:59.915Z,70.40
2022-08-17T08:50:01.212Z,70.70
2022-08-17T08:52:51.278Z,70.00
2022-08-17T08:55:41.678Z,69.60
2022-08-17T08:58:32.068Z,69.00
2022-08-17T09:01:09.398Z,69.40
2022-08-17T09:04:25.103Z,68.50
2022-08-17T09:07:10.885Z,69.00
2022-08-17T09:10:06.620Z,68.30
2022-08-17T09:13:09.590Z,69.50
2022-08-17T09:15:47.231Z,69.10
2022-08-17T09:18:59.171Z,68.80
2022-08-17T09:21:13.703Z,69.00
2022-08-17T09:23:49.462Z,67.20
2022-08-17T09:26:23.793Z,67.20
2022-08-17T09:28:53.277Z,67.00
2022-08-17T09:31:49.150Z,67.20
2022-08-17T09:34:19.437Z,67.60
2022-08-17T09:37:03.084Z,67.60
2022-08-17T09:40:02.816Z,66.90
2022-08-17T09:42:49.936Z,66.50
2022-08-17T09:45:45.290Z,66.50
2022-08-17T09:48:27.664Z,66.50
2022-08-17T09:51:45.254Z,66.60
2022-08-17T09:54:38.564Z,66.10
2022-08-17T09:57:28.449Z,65.40
2022-08-17T10:00:12.187Z,65.50
2022-08-17T10:02:51.516Z,65.80
2022-08-17T10:05:37.530Z,66.00
2022-08-17T10:08:21.862Z,66.10
2022-08-17T10:10:56.496Z,65.00
2022-08-17T10:13:52.778Z,64.60
2022-08-17T10:16:56.155Z,64.50
2022-08-17T10:19:39.054Z,64.70
2022-08-17T10:22:43.822Z,64.60
2022-08-17T10:25:53.515Z,64.90
2022-08-17T10:28:28.905Z,65.20
2022-08-17T10:31:30.961Z,66.00
2022-08-17T10:34:18.920Z,66.10
2022-08-17T10:37:19.734Z,66.10
2022-08-17T10:40:02.501Z,64.00
2022-08-17T10:42:34.736Z,64.90
2022-08-17T10:45:23.462Z,64.90
2022-08-17T10:48:05.673Z,64.10
2022-08-17T10:50:57.650Z,62.90
2022-08-17T10:53:33.546Z,62.80
2022-08-17T10:56:12.229Z,63.20
2022-08-17T10:58:49.574Z,62.90
2022-08-17T11:01:17.350Z,63.80
2022-08-17T11:03:54.911Z,63.10
2022-08-17T11:06:47.552Z,64.00
2022-08-17T11:09:39.265Z,64.40
2022-08-17T11:12:09.119Z,63.80
2022-08-17T11:14:54.734Z,63.50
2022-08-17T11:17:47.409Z,64.10
2022-08-17T11:20:45.089Z,64.60
2022-08-17T11:23:48.406Z,65.30
2022-08-17T11:26:36.570Z,64.20
2022-08-17T11:29:18.416Z,62.50
2022-08-17T11:32:00.236Z,62.70
2022-08-17T11:34:30.299Z,62.90
2022-08-17T11:37:31.133Z,63.40
2022-08-17T11:40:05.147Z,61.90
2022-08-17T11:42:54.289Z,61.70
2022-08-17T11:45:53.481Z,62.20
2022-08-17T11:49:02.782Z,62.10
2022-08-17T11:52:06.912Z,62.00
2022-08-17T11:54:45.242Z,61.50
2022-08-17T11:57:27.305Z,61.60
2022-08-17T11:59:53.938Z,61.90
2022-08-17T12:02:32.697Z,60.10
2022-08-17T12:05:14.573Z,60.60
2022-08-17T12:08:04.312Z,60.30
2022-08-17T12:10:35.421Z,60.90
2022-08-17T12:13:11.024Z,61.10
2022-08-17T12:15:42.427Z,61.00
2022-08-17T12:18:18.255Z,62.00
2022-08-17T12:20:54.603Z,63.30
2022-08-17T12:23:34.080Z,61.90
2022-08-17T12:26:08.977Z,62.50
2022-08-17T12:28:38.778Z,63.10
2022-08-17T12:31:17.808Z,62.80
2022-08-17T12:33:46.308Z,62.10
2022-08-17T12:36:20.887Z,62.00
2022-08-17T12:39:13.878Z,61.70
2022-08-17T12:41:44.412Z,61.60
2022-08-17T12:44:24.096Z,61.40
2022-08-17T12:46:56.070Z,60.60
2022-08-17T12:49:25.848Z,61.30
2022-08-17T12:52:15.586Z,60.80
2022-08-17T12:55:12.165Z,61.80
2022-08-17T12:57:38.961Z,61.10
2022-08-17T13:00:17.681Z,59.40
2022-08-17T13:02:52.214Z,60.10
2022-08-17T13:05:37.448Z,59.50
2022-08-17T13:08:18.351Z,59.70
2022-08-17T13:10:55.588Z,59.50
2022-08-17T13:13:28.362Z,59.60
2022-08-17T13:15:58.588Z,59.10
2022-08-17T13:18:47.343Z,59.10
2022-08-17T13:21:27.036Z,58.80
2022-08-17T13:24:10.170Z,58.80
2022-08-17T13:26:48.544Z,58.00
2022-08-17T13:29:35.606Z,58.70
2022-08-17T13:32:13.437Z,59.20
2022-08-17T13:35:12.090Z,57.90
2022-08-17T13:38:01.310Z,57.10
2022-08-17T13:40:37.549Z,57.20
2022-08-17T13:43:04.393Z,58.10
2022-08-17T13:45:35.477Z,57.20
2022-08-17T13:48:16.966Z,57.20
2022-08-17T13:51:19.969Z,57.60
2022-08-17T13:53:53.190Z,57.10
2022-08-17T13:57:07.376Z,57.60
2022-08-17T13:59:54.348Z,57.00
2022-08-17T14:02:27.789Z,55.90
2022-08-17T14:04:56.592Z,56.70
2022-08-17T14:07:27.804Z,56.70
2022-08-17T14:10:02.705Z,56.70
2022-08-17T14:12:32.098Z,56.40
2022-08-17T14:14:59.447Z,56.90
2022-08-17T14:17:28.872Z,56.50
2022-08-17T14:19:55.888Z,55.40
2022-08-17T14:22:30.530Z,56.00
2022-08-17T14:24:58.809Z,56.30
2022-08-17T14:27:28.034Z,55.70
2022-08-17T14:29:56.149Z,55.70
2022-08-17T14:32:30.201Z,55.80
2022-08-17T14:34:57.818Z,56.00
2022-08-17T14:37:27.955Z,55.50
2022-08-17T14:40:00.347Z,55.90
2022-08-17T14:42:30.130Z,55.90
2022-08-17T14:44:58.671Z,55.60
2022-08-17T14:47:26.608Z,57.20
2022-08-17T14:49:53.959Z,56.60
2022-08-17T14:52:21.844Z,56.50
2022-08-17T14:54:51.292Z,57.10
2022-08-17T14:57:33.446Z,56.70
2022-08-17T15:00:02.150Z,56.80
2022-08-17T15:02:29.957Z,58.00
2022-08-17T15:05:04.135Z,57.90
2022-08-17T15:07:31.528Z,58.20
2022-08-17T15:10:00.688Z,58.10
2022-08-17T15:12:32.373Z,58.50
2022-08-17T15:15:00.927Z,58.60
2022-08-17T15:17:44.782Z,59.10
2022-08-17T15:20:22.919Z,60.40
2022-08-17T15:22:50.840Z,60.90
2022-08-17T15:25:19.701Z,60.00
2022-08-17T15:27:47.388Z,60.20
2022-08-17T15:30:15.718Z,58.90
2022-08-17T15:32:50.666Z,58.60
2022-08-17T15:35:27.107Z,58.50
2022-08-17T15:38:03.534Z,59.90
2022-08-17T15:40:34.930Z,59.30
2022-08-17T15:43:32.552Z,60.10
2022-08-17T15:46:12.185Z,60.20
2022-08-17T15:48:41.801Z,60.00
2022-08-17T15:51:11.153Z,59.80
2022-08-17T15:53:38.541Z,60.40
2022-08-17T15:56:06.283Z,61.00
2022-08-17T15:58:34.909Z,60.60
2022-08-17T16:01:14.853Z,60.60
2022-08-17T16:04:05.123Z,60.50
2022-08-17T16:06:33.588Z,60.80
2022-08-17T16:09:00.432Z,59.50
2022-08-17T16:11:27.260Z,60.30
2022-08-17T16:13:54.972Z,60.60
2022-08-17T16:16:23.680Z,60.60
2022-08-17T16:18:53.706Z,60.90
2022-08-17T16:21:25.692Z,60.90
2022-08-17T16:24:03.834Z,60.70
2022-08-17T16:26:32.908Z,60.90
2022-08-17T16:29:02.214Z,61.20
2022-08-17T16:31:29.344Z,61.40
2022-08-17T16:34:16.348Z,61.10
2022-08-17T16:36:53.572Z,61.20
2022-08-17T16:39:27.556Z,61.60
2022-08-17T16:41:55.929Z,61.60
2022-08-17T16:44:23.193Z,61.30
2022-08-17T16:46:50.492Z,60.90
2022-08-17T16:49:35.109Z,60.80
2022-08-17T16:52:04.790Z,61.00
2022-08-17T16:54:31.858Z,60.90
2022-08-17T16:56:58.793Z,61.10
2022-08-17T16:59:30.407Z,61.60
2022-08-17T17:02:04.762Z,62.00
2022-08-17T17:04:35.042Z,61.70
2022-08-17T17:07:33.634Z,62.50
2022-08-17T17:10:10.606Z,63.40
2022-08-17T17:13:01.245Z,64.10
2022-08-17T17:15:35.488Z,64.00
2022-08-17T17:18:06.774Z,64.60
2022-08-17T17:20:45.754Z,65.00
2022-08-17T17:23:46.978Z,65.50
2022-08-17T17:26:28.766Z,66.30
2022-08-17T17:29:18.214Z,66.80
2022-08-17T17:32:13.698Z,67.70
2022-08-17T17:34:50.524Z,67.70
2022-08-17T17:37:24.453Z,68.00
2022-08-17T17:39:59.902Z,68.00
2022-08-17T17:42:31.356Z,68.00
2022-08-17T17:45:23.990Z,68.00
2022-08-17T17:47:50.923Z,68.20
2022-08-17T17:50:21.356Z,68.20
2022-08-17T17:53:02.922Z,68.20
2022-08-17T17:55:47.112Z,68.60
2022-08-17T17:58:42.670Z,68.70
2022-08-17T18:01:24.870Z,68.40
2022-08-17T18:04:20.543Z,68.20
2022-08-17T18:06:58.651Z,67.50
2022-08-17T18:09:57.647Z,67.90
2022-08-17T18:12:43.310Z,68.20
2022-08-17T18:15:21.867Z,67.90
2022-08-17T18:18:31.192Z,67.80
2022-08-17T18:21:06.126Z,68.30
2022-08-17T18:23:33.570Z,68.50
2022-08-17T18:26:02.035Z,68.70
2022-08-17T18:28:43.871Z,69.20
2022-08-17T18:31:16.680Z,69.70
2022-08-17T18:33:48.038Z,69.60
2022-08-17T18:36:31.206Z,69.90
2022-08-17T18:39:20.914Z,70.00
2022-08-17T18:41:54.158Z,69.80
2022-08-17T18:44:38.164Z,70.00
2022-08-17T18:47:04.985Z,69.60
2022-08-17T18:49:31.647Z,69.80
2022-08-17T18:52:33.596Z,70.40
2022-08-17T18:55:00.333Z,70.70
2022-08-17T18:57:37.798Z,71.00
2022-08-17T19:00:39.387Z,72.10
2022-08-17T19:03:25.886Z,73.40
2022-08-17T19:06:15.152Z,72.20
2022-08-17T19:08:42.094Z,72.00
2022-08-17T19:11:23.497Z,72.00
2022-08-17T19:14:13.350Z,71.50
2022-08-17T19:16:53.579Z,71.40
2022-08-17T19:19:26.537Z,71.70
2022-08-17T19:22:43.744Z,71.50
2022-08-17T19:25:21.893Z,71.70
2022-08-17T19:27:57.713Z,71.50
2022-08-17T19:30:25.947Z,71.80
2022-08-17T19:32:53.135Z,71.80
2022-08-17T19:35:22.094Z,72.00
2022-08-17T19:38:17.940Z,72.40
2022-08-17T19:40:59.053Z,73.30
2022-08-17T19:43:52.254Z,74.00
2022-08-17T19:46:49.993Z,74.00
2022-08-17T19:49:33.497Z,74.80
2022-08-17T19:52:19.735Z,75.10
2022-08-17T19:54:55.586Z,75.40
2022-08-17T19:57:49.073Z,76.00
2022-08-17T20:00:18.002Z,77.10
2022-08-17T20:02:57.416Z,77.50
2022-08-17T20:06:09.179Z,77.80
2022-08-17T20:08:44.760Z,78.40
2022-08-17T20:11:20.241Z,79.00
2022-08-17T20:14:13.092Z,78.90
2022-08-17T20:16:40.065Z,79.60
2022-08-17T20:19:06.709Z,80.00
2022-08-17T20:21:49.634Z,79.60
2022-08-17T20:24:43.893Z,79.60
2022-08-17T20:28:06.612Z,79.70
2022-08-17T20:30:42.180Z,79.50
2022-08-17T20:33:24.479Z,79.40
2022-08-17T20:36:05.270Z,79.20
2022-08-17T20:38:57.920Z,79.40
2022-08-17T20:41:28.090Z,79.10
2022-08-17T20:43:58.746Z,78.60
2022-08-17T20:46:56.513Z,78.70
2022-08-17T20:49:33.615Z,79.10
2022-08-17T20:52:07.693Z,79.80
2022-08-17T20:54:46.499Z,80.30
2022-08-17T20:57:31.634Z,80.20
2022-08-17T21:00:17.012Z,80.00
2022-08-17T21:02:49.604Z,79.70
2022-08-17T21:05:30.209Z,78.80
2022-08-17T21:08:00.827Z,78.20
2022-08-17T21:10:27.428Z,77.80
2022-08-17T21:13:13.481Z,78.00
2022-08-17T21:15:58.869Z,77.60
2022-08-17T21:18:28.560Z,77.70
2022-08-17T21:21:00.859Z,77.00
2022-08-17T21:23:47.416Z,77.20
2022-08-17T21:26:50.110Z,77.50
2022-08-17T21:29:32.399Z,77.50
2022-08-17T21:32:03.595Z,77.70
2022-08-17T21:34:36.492Z,77.90
2022-08-17T21:37:26.192Z,78.10
2022-08-17T21:40:18.270Z,78.60
2022-08-17T21:42:55.626Z,78.00
2022-08-17T21:45:36.362Z,78.30
2022-08-17T21:48:20.666Z,78.40
2022-08-17T21:51:10.424Z,78.60
2022-08-17T21:53:55.729Z,78.80
2022-08-17T21:56:45.578Z,79.20
2022-08-17T21:59:19.330Z,79.40
2022-08-17T22:02:19.491Z,79.70
2022-08-17T22:05:04.090Z,79.50
2022-08-17T22:07:45.075Z,80.00
2022-08-17T22:10:30.629Z,80.10
2022-08-17T22:13:18.413Z,80.00
2022-08-17T22:16:27.770Z,79.70
2022-08-17T22:18:55.687Z,79.60
2022-08-17T22:21:25.056Z,79.70
2022-08-17T22:24:07.669Z,79.70
2022-08-17T22:26:59.458Z,79.60
2022-08-17T22:29:44.178Z,79.10
2022-08-17T22:32:11.070Z,79.80
2022-08-17T22:34:40.514Z,79.80
2022-08-17T22:37:27.311Z,79.80
2022-08-17T22:39:58.987Z,80.70
2022-08-17T22:42:25.863Z,79.90
2022-08-17T22:44:54.557Z,80.80
2022-08-17T22:47:29.317Z,81.20
2022-08-17T22:50:02.344Z,81.30
2022-08-17T22:52:34.424Z,81.60
2022-08-17T22:55:36.483Z,81.30
2022-08-17T22:58:33.530Z,81.80
2022-08-17T23:01:30.349Z,82.50
2022-08-17T23:04:01.189Z,84.00
2022-08-17T23:06:29.078Z,85.80
2022-08-17T23:08:57.578Z,87.30
2022-08-17T23:11:42.952Z,89.60
2022-08-17T23:14:15.873Z,91.20
2022-08-17T23:16:42.982Z,92.40
2022-08-17T23:19:11.331Z,94.00
2022-08-17T23:21:38.262Z,95.90
2022-08-17T23:24:06.759Z,98.00
2022-08-17T23:26:37.884Z,98.50
2022-08-17T23:29:06.723Z,98.50
2022-08-17T23:31:35.409Z,98.50
2022-08-17T23:34:04.183Z,98.50
2022-08-17T23:36:32.944Z,98.50
2022-08-17T23:38:59.642Z,98.50
2022-08-17T23:41:29.349Z,98.50
2022-08-17T23:43:56.157Z,98.50
2022-08-17T23:46:24.522Z,98.50
2022-08-17T23:48:54.821Z,98.50
2022-08-17T23:51:26.468Z,98.50
2022-08-17T23:53:58.152Z,98.50
2022-08-17T23:56:25.767Z,98.50
2022-08-17T23:58:54.784Z,98.50
